Weather reports worldwide

Advertisment
Schmücke, Germany (10552): temperature & dewpoint: 06.12.2018 00:00:00 - 12.12.2018 00:00:00 (CET)Schmücke, Germany (10552): temperature 5cm & temperature -5cm: 06.12.2018 00:00:00 - 12.12.2018 00:00:00 (CET)Schmücke, Germany (10552): temperature -20cm & temperature -100cm: 06.12.2018 00:00:00 - 12.12.2018 00:00:00 (CET)Schmücke, Germany (10552): wind speed & gusts: 06.12.2018 00:00:00 - 12.12.2018 00:00:00 (CET)Schmücke, Germany (10552): wind direction: 06.12.2018 00:00:00 - 12.12.2018 00:00:00 (CET)Schmücke, Germany (10552): visibility: 06.12.2018 00:00:00 - 12.12.2018 00:00:00 (CET)Schmücke, Germany (10552): sunshine duration: 06.12.2018 00:00:00 - 12.12.2018 00:00:00 (CET)Schmücke, Germany (10552): precipitation: 06.12.2018 00:00:00 - 12.12.2018 00:00:00 (CET)
Date & Time tt [°C] td [°C] tt 5cm [°C] tt -5cm [°C] tt -20cm [°C] tt -100cm [°C] ff [km/h] ff [kn] fx [km/h] fx [kn] dd vv [km] sd [min] rr [mm]
12.12.2018 00:00:00 -2,3 -3,0 -1,5 0,3 1,1 4,5 11 6 32 17 NNW 6 0 0,1
11.12.2018 23:00:00 -2,1 -3,0 -1,3 0,3 1,1 4,5 12 6 31 17 NNW - 0 0,0
11.12.2018 22:00:00 -1,9 -2,4 -1,3 0,3 1,1 4,5 10 5 28 15 NW 0,6 0 0,4
11.12.2018 21:00:00 -2,0 -2,7 -1,5 0,3 1,1 4,5 9 5 27 15 WNW 1,4 0 0,0
11.12.2018 20:00:00 -2,1 -3,0 -1,6 0,3 1,1 4,5 12 6 29 15 WNW 15 0 0,0
11.12.2018 19:00:00 -2,1 -3,0 -1,8 0,3 1,1 4,5 12 6 27 15 WNW 16 0 0,0
11.12.2018 18:00:00 -2,3 -3,3 -2,0 0,3 1,1 4,5 10 6 27 15 WNW 31 0 0,0
11.12.2018 17:00:00 -2,4 -3,6 -2,2 0,3 1,1 4,5 11 6 39 21 WNW 28 0 0,0
11.12.2018 16:00:00 -2,3 -3,5 -2,6 0,3 1,1 4,5 12 7 29 16 WNW 35 33 0,0
11.12.2018 15:00:00 -1,9 -2,9 -1,3 0,3 1,2 4,5 14 7 34 18 WNW 29 0 0,1
11.12.2018 14:00:00 -1,8 -3,0 -1,1 0,3 1,2 4,5 12 7 35 19 WNW 5 0 0,0
11.12.2018 13:00:00 -1,8 -2,9 -1,0 0,3 1,2 4,5 11 6 30 16 WNW 33 0 0,6
11.12.2018 12:00:00 -1,7 -2,6 -1,0 0,3 1,2 4,5 13 7 29 16 W 6 0 0,2
11.12.2018 11:00:00 -2,0 -2,7 -1,4 0,3 1,2 4,5 14 8 38 20 W 6 0 0,0
11.12.2018 10:00:00 -2,1 -3,1 -1,6 0,3 1,2 4,5 16 9 38 20 W 8 1 0,0
11.12.2018 09:00:00 -2,2 -3,1 -1,8 0,3 1,2 4,5 18 10 40 21 WNW 8 0 0,1
11.12.2018 08:00:00 -2,2 -3,0 -1,9 0,3 1,2 4,5 19 10 49 26 W 15 0 0,0
11.12.2018 07:00:00 -2,2 -3,0 -1,8 0,3 1,2 4,5 18 10 41 22 W 17 0 0,4
11.12.2018 06:00:00 -2,1 -2,7 -1,6 0,3 1,2 4,5 19 11 43 23 W 1,4 0 0,1
11.12.2018 05:00:00 -2,2 -2,8 -1,8 0,3 1,2 4,5 24 13 49 26 W 1,3 0 0,1
11.12.2018 04:00:00 -2,3 -3,2 -2,0 0,3 1,2 4,5 22 12 47 25 W 11 0 0,1
11.12.2018 03:00:00 -2,3 -3,1 -2,3 0,3 1,2 4,5 21 11 45 24 W 18 0 0,0
11.12.2018 02:00:00 -2,2 -3,1 -1,9 0,3 1,2 4,5 25 13 52 28 WNW 20 0 0,1
11.12.2018 01:00:00 -2,2 -3,0 -2,0 0,3 1,2 4,5 20 11 46 25 W 1,5 0 0,2
11.12.2018 00:00:00 -2,3 -2,9 -2,0 0,3 1,2 4,5 21 12 51 28 W 2,2 0 0,2
10.12.2018 23:00:00 -2,4 -3,2 -2,2 0,3 1,2 4,6 21 11 41 22 W 6 0 0,2
10.12.2018 22:00:00 -2,4 -3,1 -2,3 0,3 1,3 4,6 25 14 49 26 W 2,4 0 0,1
10.12.2018 21:00:00 -2,6 -3,5 -2,5 0,3 1,3 4,6 24 13 47 25 W 2,6 0 0,1
10.12.2018 20:00:00 -2,8 -3,6 -2,8 0,3 1,3 4,6 21 12 48 26 W 19 0 0,0
10.12.2018 19:00:00 -2,6 -3,3 -2,6 0,3 1,3 4,6 21 11 59 32 W 23 0 0,1
10.12.2018 18:00:00 -2,3 -3,0 -2,3 0,3 1,3 4,6 23 12 53 29 W 3,4 0 0,8
10.12.2018 17:00:00 -2,2 -3,0 -2,2 0,3 1,3 4,6 21 11 47 26 W 17 0 0,0
10.12.2018 16:00:00 -1,9 -2,7 -1,9 0,3 1,3 4,6 29 16 52 28 W 3,1 0 0,2
10.12.2018 15:00:00 -1,8 -2,7 -1,9 0,4 1,3 4,6 25 14 54 29 W 21 0 1,6
10.12.2018 14:00:00 -1,9 -2,5 -1,8 0,4 1,3 4,6 20 11 41 22 W 0,6 0 0,5
10.12.2018 13:00:00 -2,0 -2,7 -2,0 0,4 1,3 4,6 22 12 45 25 W 17 0 0,4
10.12.2018 12:00:00 -2,1 -2,8 -2,0 0,4 1,4 4,5 20 11 49 26 W 19 0 0,3
10.12.2018 11:00:00 -2,1 -3,0 -2,1 0,4 1,4 4,5 23 12 44 24 W 21 0 0,1
10.12.2018 10:00:00 -2,1 -3,1 -2,1 0,4 1,4 4,5 21 12 44 24 W 16 0 0,4
10.12.2018 09:00:00 -2,0 -2,8 -2,0 0,4 1,4 4,5 21 12 48 26 W 1,8 0 0,1
10.12.2018 08:00:00 -1,9 -2,6 -1,9 0,4 1,4 4,5 18 10 50 27 W 22 0 0,0
10.12.2018 07:00:00 -1,8 -2,4 -1,8 0,4 1,4 4,5 26 14 53 28 W 8 0 0,1
10.12.2018 06:00:00 -1,8 -2,5 -1,8 0,4 1,4 4,5 24 13 51 27 W 24 0 0,8
10.12.2018 05:00:00 -1,4 -2,0 -1,4 0,4 1,5 4,5 24 13 43 23 W 0,8 0 1,5
10.12.2018 04:00:00 -1,2 -1,6 -1,1 0,4 1,5 4,5 20 11 49 26 W 0,8 0 0,1
10.12.2018 03:00:00 -1,2 -2,0 -1,2 0,4 1,5 4,5 23 12 54 29 W 17 0 0,2
10.12.2018 02:00:00 -1,0 -1,8 -1,1 0,4 1,5 4,5 24 13 53 28 W 12 0 0,2
10.12.2018 01:00:00 -0,8 -1,4 -0,8 0,4 1,5 4,5 25 13 52 28 W 5 0 0,6
10.12.2018 00:00:00 -0,7 -1,4 -0,8 0,4 1,6 4,5 24 13 47 25 W 24 0 0,8
09.12.2018 23:00:00 -0,1 -0,5 -0,2 0,4 1,6 4,5 18 10 59 32 W 1,1 0 0,1
09.12.2018 22:00:00 -0,1 -0,5 -0,1 0,5 1,6 4,5 18 10 45 25 W 4,5 0 0,1
09.12.2018 21:00:00 -0,1 -0,5 -0,1 0,5 1,7 4,5 20 11 43 23 W 3,2 0 0,9
09.12.2018 20:00:00 0,2 -0,1 -0,1 0,5 1,7 4,5 20 11 46 25 W 0,9 0 0,3
09.12.2018 19:00:00 0,1 -0,1 -0,1 0,5 1,8 4,5 26 14 53 29 W 0,2 0 0,0
09.12.2018 18:00:00 0,0 -0,2 -0,1 0,6 1,9 4,5 21 11 44 24 W 0,2 0 0,0
09.12.2018 17:00:00 -0,1 -0,4 -0,2 0,7 1,9 4,5 26 14 43 23 W 0,6 0 0,1
09.12.2018 16:00:00 -0,1 -0,5 -0,1 0,8 2,0 4,5 29 16 49 26 W 1,0 0 1,9
09.12.2018 15:00:00 1,4 1,2 1,0 1,4 2,0 4,5 24 13 51 28 WSW 0,2 0 1,3
09.12.2018 14:00:00 1,6 1,4 1,4 1,5 1,9 4,5 30 16 49 26 WSW 0,2 0 0,2
09.12.2018 13:00:00 1,5 1,3 1,4 1,4 1,9 4,5 26 14 58 32 WSW 0,3 0 0,0
09.12.2018 12:00:00 1,4 1,1 1,3 1,1 2,0 4,5 29 15 65 35 WSW 0,2 0 0,2
09.12.2018 11:00:00 1,0 0,7 0,7 0,9 2,0 4,5 28 15 53 29 WSW 0,2 0 1,3
09.12.2018 10:00:00 1,1 0,9 1,0 1,4 2,0 4,5 25 14 56 30 WSW 0,2 0 0,4
09.12.2018 09:00:00 1,4 1,2 1,2 1,4 2,0 4,5 31 17 54 29 WSW 0,3 0 0,2
09.12.2018 08:00:00 1,5 1,3 1,3 1,2 2,0 4,5 30 16 59 32 WSW 0,2 0 0,3
09.12.2018 07:00:00 1,5 1,3 1,2 1,0 2,1 4,5 27 14 57 31 WSW 0,3 0 1,9
09.12.2018 06:00:00 1,4 1,1 0,8 1,2 2,2 4,5 25 14 61 33 WSW 0,9 0 0,2
09.12.2018 05:00:00 1,3 1,1 0,9 1,2 2,2 4,5 31 17 61 33 WSW 0,5 0 3,7
09.12.2018 04:00:00 2,3 2,1 2,1 2,1 2,1 4,5 30 16 56 30 WSW 0,2 0 1,2
09.12.2018 03:00:00 2,6 2,4 2,4 2,1 2,1 4,5 25 14 54 29 SW 0,1 0 0,2
09.12.2018 02:00:00 2,6 2,4 2,4 2,1 2,0 4,6 29 16 82 45 SW 0,3 0 3,5
09.12.2018 01:00:00 2,8 2,6 2,6 1,9 1,9 4,6 50 27 80 43 SW 0,3 0 1,7
09.12.2018 00:00:00 2,5 2,3 2,3 1,6 1,9 4,6 50 27 85 46 SW 0,2 0 1,5
08.12.2018 23:00:00 2,1 1,9 1,9 1,4 1,8 4,6 47 25 73 40 SSW 0,2 0 2,1
08.12.2018 22:00:00 2,1 1,9 1,8 1,3 1,8 4,6 45 24 77 42 SW 0,1 0 0,2
08.12.2018 21:00:00 1,6 1,3 1,4 1,1 1,8 4,6 47 25 73 39 SW 0,2 0 0,2
08.12.2018 20:00:00 1,3 1,1 1,1 0,9 1,8 4,6 32 18 61 33 SW 0,1 0 0,0
08.12.2018 19:00:00 1,4 1,2 1,1 0,7 1,8 4,6 32 17 62 34 SW 0,1 0 0,0
08.12.2018 18:00:00 1,3 1,1 1,0 0,5 1,8 4,6 29 16 61 33 SW 0,1 0 0,5
08.12.2018 17:00:00 1,3 1,0 1,0 0,5 1,9 4,6 30 16 61 33 WSW 0,1 0 0,7
08.12.2018 16:00:00 1,2 0,9 0,9 0,5 1,9 4,6 32 17 63 34 SW 0,1 0 0,7
08.12.2018 15:00:00 0,9 0,6 0,6 0,5 2,0 4,6 30 16 56 30 SW 0,2 0 0,3
08.12.2018 14:00:00 0,4 0,2 0,1 0,6 2,1 4,6 35 19 72 39 SW 0,1 0 0,6
08.12.2018 13:00:00 0,1 -0,2 0,0 0,6 2,2 4,6 37 20 64 35 SW 0,2 0 0,4
08.12.2018 12:00:00 0,0 -0,2 0,0 0,6 2,2 4,6 37 20 67 36 SW 0,1 0 0,3
08.12.2018 11:00:00 -0,1 -0,4 0,0 0,7 2,3 4,6 38 20 67 36 SW 0,1 0 0,7
08.12.2018 10:00:00 -0,1 -0,4 0,0 0,7 2,4 4,6 42 23 70 38 SW 0,1 0 0,5
08.12.2018 09:00:00 -0,1 -0,4 -0,1 0,8 2,5 4,6 36 20 66 36 SW 0,1 0 0,1
08.12.2018 08:00:00 -0,3 -0,6 -0,2 0,9 2,7 4,6 35 19 56 31 SW 0,2 0 0,0
08.12.2018 07:00:00 -0,4 -0,8 -0,3 1,0 2,8 4,6 31 17 58 32 SW 0,4 0 0,0
08.12.2018 06:00:00 -0,3 -0,6 -0,3 1,1 3,0 4,6 28 15 55 30 SW 0,2 0 1,3
08.12.2018 05:00:00 -0,4 -0,8 -0,4 1,5 3,1 4,6 22 12 47 25 SW 8 0 0,0
08.12.2018 04:00:00 -0,3 -0,6 -0,3 1,7 3,2 4,6 26 14 50 27 WSW 1,2 0 0,0
08.12.2018 03:00:00 0,2 0,0 0,1 1,9 3,4 4,6 24 13 48 26 WSW 0,2 0 0,1
08.12.2018 02:00:00 0,3 0,0 0,2 2,2 3,5 4,6 26 14 52 28 WSW 0,3 0 0,0
08.12.2018 01:00:00 0,3 0,0 0,2 2,4 3,7 4,6 29 16 55 30 WSW 0,5 0 0,8
08.12.2018 00:00:00 1,0 0,5 0,3 3,5 3,7 4,6 31 17 82 44 W 3,8 0 1,7
07.12.2018 23:00:00 4,0 3,8 3,8 3,8 3,7 4,6 29 16 71 38 WSW 0,1 0 0,9
07.12.2018 22:00:00 3,9 3,7 3,7 3,8 3,7 4,6 47 25 76 41 SW 0,2 0 1,7
07.12.2018 21:00:00 3,7 3,5 3,4 3,8 3,7 4,6 42 23 71 39 SW 0,2 0 1,5
07.12.2018 20:00:00 3,7 3,5 3,5 4,0 3,7 4,6 45 24 80 43 SW 0,4 0 0,4
07.12.2018 19:00:00 4,1 3,8 3,9 4,2 3,7 4,6 54 29 84 45 SW 0,2 0 0,2
07.12.2018 18:00:00 4,4 4,2 4,3 4,3 3,7 4,7 50 27 86 46 SW 0,2 0 0,2
07.12.2018 17:00:00 4,7 4,5 4,5 4,4 3,7 4,7 52 28 76 41 SW 0,1 0 1,4
07.12.2018 16:00:00 5,1 4,9 4,9 4,5 3,6 4,7 41 22 66 36 SW 0,1 0 1,8
07.12.2018 15:00:00 5,3 5,1 5,1 4,5 3,5 4,7 37 20 64 34 SW 0,2 0 0,2
07.12.2018 14:00:00 5,3 5,1 5,1 4,6 3,4 4,7 34 19 72 39 SW 0,2 0 0,3
07.12.2018 13:00:00 5,2 5,0 5,0 4,6 3,3 4,7 42 23 70 38 SW 0,2 0 0,3
07.12.2018 12:00:00 5,4 5,2 5,2 4,6 3,2 4,7 34 18 59 32 SW 0,1 0 0,4
07.12.2018 11:00:00 5,9 5,7 5,7 4,6 3,1 4,7 33 18 66 36 SW 0,2 0 0,6
07.12.2018 10:00:00 6,1 5,9 5,8 4,5 2,9 4,7 29 16 55 30 SW 0,1 0 0,2
07.12.2018 09:00:00 6,3 6,2 6,1 4,4 2,8 4,7 35 19 55 30 SW 0,2 0 1,0
07.12.2018 08:00:00 6,4 6,2 6,1 4,3 2,6 4,7 35 19 69 37 SW 0,2 0 0,6
07.12.2018 07:00:00 6,4 6,2 6,1 4,1 2,4 4,7 38 20 64 35 SW 0,2 0 0,0
07.12.2018 06:00:00 6,3 6,2 6,0 3,9 2,1 4,7 40 22 63 34 SW 0,1 0 0,2
07.12.2018 05:00:00 6,2 6,0 5,8 3,5 1,9 4,7 32 17 55 30 SW 0,1 0 0,1
07.12.2018 04:00:00 6,1 5,9 5,8 3,2 1,7 4,7 27 15 49 27 WSW 0,1 0 0,2
07.12.2018 03:00:00 5,9 5,7 5,5 2,8 1,5 4,7 25 14 50 27 WSW 0,1 0 0,1
07.12.2018 02:00:00 5,6 5,4 5,3 2,3 1,3 4,7 30 16 45 24 SW 0,1 0 0,2
07.12.2018 01:00:00 5,4 5,2 5,0 1,6 1,1 4,7 21 11 50 27 SW 0,1 0 0,6
07.12.2018 00:00:00 5,2 5,0 4,8 0,1 1,1 4,7 36 19 53 29 SW 0,1 0 0,4
06.12.2018 23:00:00 4,8 4,6 4,3 0,0 1,1 4,7 24 13 40 21 SW 0,1 0 0,0
06.12.2018 22:00:00 4,4 4,2 3,9 0,0 1,1 4,7 28 15 51 27 SW 0,1 0 0,0
06.12.2018 21:00:00 4,0 3,8 3,6 0,0 1,1 4,7 32 17 48 26 SW 0,1 0 0,0
06.12.2018 20:00:00 3,9 3,7 3,5 0,0 1,1 4,7 27 15 46 25 SW 0,1 0 0,0
06.12.2018 19:00:00 3,5 3,3 3,0 0,0 1,1 4,7 34 18 52 28 WSW 0,1 0 0,0
06.12.2018 18:00:00 2,3 2,1 1,9 0,0 1,1 4,7 30 16 45 25 WSW 0,1 0 0,1
06.12.2018 17:00:00 1,5 1,2 1,2 0,0 1,1 4,7 27 14 37 20 WSW 0,1 0 0,1
06.12.2018 16:00:00 1,4 1,2 1,1 0,0 1,1 4,7 26 14 46 25 WSW 0,1 0 0,1
06.12.2018 15:00:00 1,3 1,1 1,0 0,0 1,1 4,7 33 18 47 26 WSW 0,1 0 0,0
06.12.2018 14:00:00 0,8 0,5 0,6 0,0 1,1 4,7 23 12 33 18 WSW 0,1 0 0,1
06.12.2018 13:00:00 0,8 0,5 0,6 0,0 1,1 4,7 22 12 28 15 WSW 0,1 0 0,1
06.12.2018 12:00:00 0,8 0,6 0,5 0,0 1,2 4,7 17 9 35 19 WSW 0,1 0 0,0
06.12.2018 11:00:00 0,2 -0,1 -0,1 0,0 1,2 4,7 18 10 38 20 SW 0,1 0 0,2
06.12.2018 10:00:00 0,0 -0,3 -0,1 0,0 1,2 4,7 29 16 47 25 WSW 0,1 0 0,0
06.12.2018 09:00:00 -0,5 -0,8 -0,4 0,0 1,2 4,7 22 12 41 22 SW 0,1 0 0,0
06.12.2018 08:00:00 -0,1 -0,4 -0,1 0,0 1,2 4,7 25 14 39 21 SW 0,1 0 0,1
06.12.2018 07:00:00 -0,7 -1,0 -0,2 0,0 1,2 4,7 22 12 40 22 WSW 0,1 0 0,5
06.12.2018 06:00:00 -1,4 -2,1 -1,3 0,0 1,2 4,7 24 13 40 22 SW 8 0 0,0
06.12.2018 05:00:00 -1,0 -2,1 -1,0 0,0 1,2 4,7 13 7 34 19 S 18 0 0,0
06.12.2018 04:00:00 -0,9 -2,3 -1,0 0,0 1,2 4,7 22 12 41 22 SSW 28 0 0,0
06.12.2018 03:00:00 -0,2 -1,7 -0,5 0,0 1,3 4,7 20 11 40 22 SSW 39 0 0,0
06.12.2018 02:00:00 -0,2 -2,1 -0,4 0,0 1,3 4,7 19 10 51 28 SSW 47 0 0,0
06.12.2018 01:00:00 -0,3 -2,4 -0,5 0,0 1,3 4,7 29 16 48 26 SSW 48 0 0,0
06.12.2018 00:00:00 -0,4 -2,7 -1,0 0,0 1,3 4,7 26 14 52 28 SSW 64 0 0,0

tt = temperature
td = dewpoint
tt 5cm = temperature 5cm
tt -5cm = temperature -5cm
tt -20cm = temperature -20cm
tt -100cm = temperature -100cm
ff = wind speed
fx = gusts
dd = wind direction
vv = visibility
sd = sunshine duration
rr = precipitation

Next stations